Time;durP1;ratioP1;P1;durP2;ratioP2;P2;SDS_P1;SDS_P2;PMS_P1;PMS_P2;Temp;Humidity;BMP_temperature;BMP_pressure;BME280_temperature;BME280_humidity;BME280_pressure;Samples;Min_cycle;Max_cycle;Signal;HPM_P1;HPM_P2
2022/05/13 00:03:05;;;;;;;3.80;0.88;;;17.00;70.10;;;;;;10503069;28;20025;-72
2022/05/13 00:08:06;;;;;;;3.75;1.10;;;17.00;70.10;;;;;;10500720;28;20044;-71
2022/05/13 00:13:08;;;;;;;2.55;1.30;;;17.00;70.10;;;;;;10502827;28;20025;-65
2022/05/13 00:18:09;;;;;;;2.88;1.15;;;16.90;70.10;;;;;;10500154;28;20157;-68
2022/05/13 00:23:10;;;;;;;3.97;0.93;;;16.90;70.10;;;;;;10502094;28;20036;-74
2022/05/13 00:28:13;;;;;;;2.05;1.00;;;16.90;70.10;;;;;;10502448;28;20087;-73
2022/05/13 00:33:15;;;;;;;2.45;0.95;;;16.90;70.20;;;;;;10488711;28;20028;-73
2022/05/13 00:38:16;;;;;;;4.47;1.20;;;16.80;70.10;;;;;;10506294;28;20056;-66
2022/05/13 00:43:41;;;;;;;2.75;1.20;;;16.80;70.20;;;;;;10506133;28;20524;-72
2022/05/13 00:48:46;;;;;;;2.30;1.13;;;16.80;70.20;;;;;;10504894;28;20036;-71
2022/05/13 00:53:47;;;;;;;1.92;0.98;;;16.80;70.20;;;;;;10505680;28;20040;-66
2022/05/13 00:58:55;;;;;;;5.13;1.30;;;16.70;70.10;;;;;;10505841;28;20025;-75
2022/05/13 01:04:09;;;;;;;3.85;1.25;;;16.70;70.20;;;;;;10504133;28;20039;-65
2022/05/13 01:09:10;;;;;;;2.97;1.10;;;16.70;70.20;;;;;;10506274;28;20095;-66
2022/05/13 01:14:23;;;;;;;2.70;0.95;;;16.70;70.20;;;;;;10488882;28;20059;-71
2022/05/13 01:19:24;;;;;;;2.72;0.88;;;16.70;70.30;;;;;;10506582;28;20055;-69
2022/05/13 01:24:27;;;;;;;3.58;0.90;;;16.60;70.30;;;;;;10506921;28;20033;-63
2022/05/13 01:29:28;;;;;;;5.20;1.20;;;16.60;70.30;;;;;;10507987;28;20131;-72
2022/05/13 01:34:30;;;;;;;2.08;1.10;;;16.60;70.30;;;;;;10508572;28;20029;-67
2022/05/13 01:39:32;;;;;;;3.15;1.40;;;16.60;70.30;;;;;;10505238;28;20500;-71
2022/05/13 01:44:33;;;;;;;2.58;1.08;;;16.50;70.30;;;;;;10504428;28;20028;-71
2022/05/13 01:49:35;;;;;;;4.03;1.33;;;16.50;70.30;;;;;;10503216;28;20135;-73
2022/05/13 01:54:37;;;;;;;2.35;1.00;;;16.50;70.30;;;;;;10501308;28;20437;-69
2022/05/13 01:59:38;;;;;;;1.77;1.10;;;16.50;70.40;;;;;;10483538;28;20029;-71
2022/05/13 02:04:40;;;;;;;1.90;0.90;;;16.40;70.40;;;;;;10501425;28;20124;-73
2022/05/13 02:09:42;;;;;;;3.10;1.00;;;16.40;70.40;;;;;;10500611;28;20123;-73
2022/05/13 02:14:43;;;;;;;2.85;1.10;;;16.40;70.40;;;;;;10500406;28;20178;-69
2022/05/13 02:19:44;;;;;;;1.83;0.90;;;16.40;70.50;;;;;;10500144;28;20067;-71
2022/05/13 02:24:45;;;;;;;1.90;1.00;;;16.40;70.50;;;;;;10500424;28;20032;-72
2022/05/13 02:29:46;;;;;;;1.88;0.85;;;16.30;70.50;;;;;;10500081;28;20079;-70
2022/05/13 02:34:50;;;;;;;1.50;1.00;;;16.30;70.60;;;;;;10503685;28;20033;-72
2022/05/13 02:39:51;;;;;;;2.15;1.10;;;16.30;70.60;;;;;;10501300;28;20572;-72
2022/05/13 02:44:52;;;;;;;2.47;1.05;;;16.20;70.60;;;;;;10501997;28;20428;-73
2022/05/13 02:55:13;;;;;;;3.00;1.10;;;16.20;70.70;;;;;;10503835;28;20043;-70
2022/05/13 03:00:14;;;;;;;3.35;1.08;;;16.20;70.80;;;;;;10501434;28;20028;-73
2022/05/13 03:05:15;;;;;;;2.92;1.08;;;16.20;70.90;;;;;;10501213;28;20035;-61
2022/05/13 03:10:19;;;;;;;1.90;1.00;;;16.20;70.90;;;;;;10483904;28;20041;-68
2022/05/13 03:15:19;;;;;;;4.43;1.17;;;16.20;71.00;;;;;;10502351;28;20078;-70
2022/05/13 03:20:24;;;;;;;4.07;1.33;;;16.10;71.00;;;;;;10502522;28;20060;-73
2022/05/13 03:25:26;;;;;;;3.85;1.10;;;16.10;71.00;;;;;;10503371;28;20089;-71
2022/05/13 03:30:28;;;;;;;2.67;0.90;;;16.10;71.10;;;;;;10501667;28;20049;-68
2022/05/13 03:35:30;;;;;;;4.25;1.10;;;16.10;71.20;;;;;;10500498;28;20093;-72
2022/05/13 03:40:33;;;;;;;2.60;1.08;;;16.10;71.20;;;;;;10500680;28;20497;-66
2022/05/13 03:45:36;;;;;;;1.13;0.93;;;16.10;71.30;;;;;;10499280;28;20036;-70
2022/05/13 03:50:40;;;;;;;3.05;0.98;;;16.10;72.00;;;;;;10502613;28;20047;-64
2022/05/13 03:55:41;;;;;;;3.22;0.98;;;16.00;71.40;;;;;;10484191;28;20032;-69
2022/05/13 04:00:46;;;;;;;3.50;1.30;;;16.00;71.40;;;;;;10500796;28;20400;-67
2022/05/13 04:11:07;;;;;;;2.72;1.10;;;16.00;71.60;;;;;;10508312;28;20041;-66
2022/05/13 04:16:08;;;;;;;2.58;1.00;;;16.00;71.70;;;;;;10508051;28;20037;-71
2022/05/13 04:21:13;;;;;;;2.67;0.90;;;15.90;71.60;;;;;;10506265;28;20037;-72
2022/05/13 04:26:14;;;;;;;4.15;1.20;;;15.90;71.70;;;;;;10505916;28;20090;-70
2022/05/13 04:31:20;;;;;;;3.58;1.10;;;15.90;71.80;;;;;;10508618;28;20043;-72
2022/05/13 04:36:26;;;;;;;4.38;1.13;;;15.90;71.90;;;;;;10505894;28;20052;-72
2022/05/13 04:46:48;;;;;;;2.70;1.20;;;15.90;72.00;;;;;;10506179;28;20044;-70
2022/05/13 04:51:49;;;;;;;3.03;1.25;;;15.90;72.10;;;;;;10486618;28;20183;-74
2022/05/13 04:56:50;;;;;;;3.22;0.90;;;15.90;72.10;;;;;;10505429;28;20033;-63
2022/05/13 05:01:51;;;;;;;3.50;1.45;;;15.80;72.10;;;;;;10503471;28;20420;-72
2022/05/13 05:06:51;;;;;;;1.80;0.90;;;15.80;72.20;;;;;;10504102;28;20098;-70
2022/05/13 05:11:52;;;;;;;5.03;2.00;;;15.80;72.20;;;;;;10504082;28;20378;-72
2022/05/13 05:16:53;;;;;;;3.25;1.13;;;15.90;72.40;;;;;;10504377;28;20488;-73
2022/05/13 05:21:54;;;;;;;4.55;1.50;;;15.90;72.40;;;;;;10503420;28;20047;-73
2022/05/13 05:26:55;;;;;;;5.47;1.25;;;15.90;72.50;;;;;;10504944;28;20112;-66
2022/05/13 05:31:56;;;;;;;7.63;1.30;;;15.90;72.50;;;;;;10503438;28;20048;-69
2022/05/13 05:36:58;;;;;;;5.70;1.65;;;15.90;72.50;;;;;;10504789;28;20064;-63
2022/05/13 05:42:00;;;;;;;4.43;1.70;;;15.90;72.50;;;;;;10504433;28;20041;-71
2022/05/13 05:47:01;;;;;;;2.38;1.10;;;15.90;72.60;;;;;;10500954;28;20496;-70
2022/05/13 05:52:05;;;;;;;3.60;1.20;;;16.00;72.60;;;;;;10503614;28;20060;-71
2022/05/13 05:57:15;;;;;;;4.25;1.48;;;16.00;72.60;;;;;;10506404;28;20043;-76
2022/05/13 06:02:20;;;;;;;4.07;1.30;;;16.00;72.90;;;;;;10507191;28;20043;-76
2022/05/13 06:07:21;;;;;;;5.50;1.77;;;16.00;73.00;;;;;;10510253;28;20127;-71
2022/05/13 06:12:22;;;;;;;5.55;1.27;;;16.00;72.90;;;;;;10501959;28;20043;-73
2022/05/13 06:17:23;;;;;;;3.88;1.08;;;16.10;73.50;;;;;;10499754;28;20028;-75
2022/05/13 06:22:24;;;;;;;4.35;1.40;;;16.10;73.20;;;;;;10499817;28;20032;-71
2022/05/13 06:27:26;;;;;;;3.35;1.00;;;16.10;73.20;;;;;;10500908;28;20048;-70
2022/05/13 06:32:26;;;;;;;4.05;1.48;;;16.20;73.20;;;;;;10502818;28;20049;-78
2022/05/13 06:37:27;;;;;;;3.45;1.13;;;16.10;73.20;;;;;;10482918;28;20067;-77
2022/05/13 06:42:32;;;;;;;4.28;1.25;;;16.10;73.20;;;;;;10500895;28;20459;-78
2022/05/13 06:47:33;;;;;;;6.18;1.55;;;16.20;73.20;;;;;;10502682;28;20085;-67
2022/05/13 06:52:45;;;;;;;1.90;1.30;;;16.20;73.10;;;;;;10512078;28;20056;-81
2022/05/13 06:57:52;;;;;;;2.22;1.10;;;16.20;73.20;;;;;;10511337;28;20025;-74
2022/05/13 07:02:53;;;;;;;3.75;1.10;;;16.20;73.00;;;;;;10509434;28;20036;-73
2022/05/13 07:07:56;;;;;;;2.97;1.65;;;16.20;73.00;;;;;;10510497;28;20040;-75
2022/05/13 07:12:58;;;;;;;3.33;1.25;;;16.20;73.00;;;;;;10508296;28;20028;-74
2022/05/13 07:17:59;;;;;;;3.97;1.13;;;16.20;73.00;;;;;;10507870;28;20043;-79
2022/05/13 07:23:00;;;;;;;4.10;1.10;;;16.20;73.00;;;;;;10506954;28;20098;-78
2022/05/13 07:28:01;;;;;;;1.98;1.00;;;16.20;72.90;;;;;;10503814;28;20512;-69
2022/05/13 07:33:03;;;;;;;3.78;1.27;;;16.30;72.90;;;;;;10500068;28;20503;-65
2022/05/13 07:38:23;;;;;;;4.00;1.13;;;16.30;73.10;;;;;;10383870;28;20069;-63
2022/05/13 07:44:08;;;;;;;3.42;1.08;;;16.40;73.20;;;;;;10493903;28;20045;-68
2022/05/13 07:49:13;;;;;;;2.78;1.02;;;16.40;73.10;;;;;;10495250;28;20052;-64
2022/05/13 07:54:14;;;;;;;3.92;1.10;;;16.40;73.20;;;;;;10495517;28;20369;-67
2022/05/13 07:59:16;;;;;;;4.65;1.50;;;16.50;73.10;;;;;;10493845;28;20536;-66
2022/05/13 08:04:17;;;;;;;2.47;0.90;;;16.50;72.90;;;;;;10493905;28;20048;-67
2022/05/13 08:09:18;;;;;;;3.72;1.30;;;16.60;72.90;;;;;;10492947;28;20071;-65
2022/05/13 08:14:19;;;;;;;7.35;1.40;;;16.60;72.80;;;;;;10493824;28;20032;-68
2022/05/13 08:19:19;;;;;;;3.22;1.13;;;16.60;72.70;;;;;;10492083;28;20449;-66
2022/05/13 08:24:20;;;;;;;5.53;1.20;;;16.70;72.60;;;;;;10493010;28;20028;-66
2022/05/13 08:29:21;;;;;;;2.60;1.02;;;16.70;72.50;;;;;;10493352;28;20466;-66
2022/05/13 08:34:22;;;;;;;2.88;1.45;;;16.70;72.40;;;;;;10492973;28;20064;-66
2022/05/13 08:39:23;;;;;;;4.10;1.02;;;16.70;72.40;;;;;;10492718;28;20052;-66
2022/05/13 08:44:25;;;;;;;3.08;0.95;;;16.80;72.40;;;;;;10492774;28;20496;-64
2022/05/13 08:49:59;;;;;;;4.20;1.10;;;16.80;72.40;;;;;;10495737;28;20513;-65
2022/05/13 08:55:04;;;;;;;3.90;1.05;;;16.80;72.30;;;;;;10496310;28;20036;-65
2022/05/13 09:00:11;;;;;;;4.03;1.08;;;16.80;72.20;;;;;;10500047;28;20052;-65
2022/05/13 09:05:32;;;;;;;3.20;1.20;;;16.90;72.20;;;;;;10500001;28;20389;-67
2022/05/13 09:10:53;;;;;;;3.13;0.93;;;17.00;72.20;;;;;;10499676;28;20072;-64
2022/05/13 09:15:58;;;;;;;2.22;1.05;;;17.00;72.00;;;;;;10499574;28;20056;-65
2022/05/13 09:21:30;;;;;;;1.98;0.90;;;17.00;71.90;;;;;;10499480;28;20041;-65
2022/05/13 09:26:31;;;;;;;3.63;1.40;;;17.10;72.10;;;;;;10494578;28;20068;-67
2022/05/13 09:31:35;;;;;;;2.63;1.10;;;17.10;72.00;;;;;;10498006;28;20064;-66
2022/05/13 09:36:36;;;;;;;3.78;0.95;;;17.10;72.00;;;;;;10499277;28;20025;-65
2022/05/13 09:41:37;;;;;;;5.30;1.00;;;17.10;71.90;;;;;;10498834;28;20084;-64
2022/05/13 09:46:50;;;;;;;2.25;0.95;;;17.10;71.80;;;;;;10498859;28;20052;-65
2022/05/13 09:52:00;;;;;;;2.10;1.02;;;17.20;71.90;;;;;;10497130;28;20067;-66
2022/05/13 09:57:29;;;;;;;4.28;1.30;;;17.20;71.80;;;;;;10498239;28;20032;-65
2022/05/13 10:02:33;;;;;;;1.67;0.90;;;17.30;71.80;;;;;;10496302;28;20040;-65
2022/05/13 10:07:34;;;;;;;2.60;0.80;;;17.30;71.60;;;;;;10497710;28;20390;-65
2022/05/13 10:18:24;;;;;;;1.83;0.67;;;17.40;71.60;;;;;;10497299;28;20063;-65
2022/05/13 10:23:59;;;;;;;4.18;0.88;;;17.40;71.60;;;;;;10496174;28;20078;-65
2022/05/13 10:29:23;;;;;;;6.07;0.80;;;17.40;71.60;;;;;;10495518;28;20060;-62
2022/05/13 10:34:40;;;;;;;2.28;0.93;;;17.40;71.60;;;;;;10496564;28;20037;-64
2022/05/13 10:39:54;;;;;;;1.63;1.10;;;17.50;71.60;;;;;;10477996;28;20067;-61
2022/05/13 10:45:11;;;;;;;3.42;1.20;;;17.50;71.60;;;;;;10496252;28;20115;-63
2022/05/13 10:50:20;;;;;;;1.90;1.17;;;17.60;71.60;;;;;;10492598;28;20047;-66
2022/05/13 10:55:57;;;;;;;3.38;0.80;;;17.50;71.50;;;;;;10495949;28;20033;-68
2022/05/13 11:01:23;;;;;;;3.47;1.23;;;17.60;71.50;;;;;;10489613;28;20036;-66
2022/05/13 11:06:52;;;;;;;2.75;1.05;;;17.70;71.40;;;;;;10495319;28;20449;-67
2022/05/13 11:12:30;;;;;;;5.15;1.20;;;17.60;71.40;;;;;;10495208;28;20048;-67
2022/05/13 11:17:36;;;;;;;2.28;1.20;;;17.70;71.30;;;;;;10489839;28;20071;-64
2022/05/13 11:22:38;;;;;;;3.97;1.20;;;17.80;71.30;;;;;;10494835;28;20048;-66
2022/05/13 11:28:08;;;;;;;2.78;1.50;;;17.80;71.30;;;;;;10494055;28;20392;-64
2022/05/13 11:33:21;;;;;;;2.22;1.15;;;17.90;71.20;;;;;;10492073;28;20047;-66
2022/05/13 11:38:51;;;;;;;2.72;1.15;;;17.90;71.10;;;;;;10494581;28;20483;-65
2022/05/13 11:44:03;;;;;;;5.70;1.10;;;18.00;71.10;;;;;;10411903;28;20056;-68
2022/05/13 11:49:19;;;;;;;2.20;1.20;;;18.00;71.00;;;;;;10411639;28;20045;-66
2022/05/13 11:54:28;;;;;;;3.03;1.30;;;18.00;71.00;;;;;;10411722;28;20124;-66
2022/05/13 11:59:29;;;;;;;1.50;1.00;;;18.00;71.10;;;;;;10411314;28;20034;-65
2022/05/13 12:04:37;;;;;;;3.47;1.23;;;18.00;71.20;;;;;;10411567;28;20042;-65
2022/05/13 12:09:49;;;;;;;4.05;1.55;;;18.10;71.10;;;;;;10411438;28;20042;-66
2022/05/13 12:15:26;;;;;;;3.10;1.10;;;18.10;71.00;;;;;;10443532;28;20092;-67
2022/05/13 12:21:05;;;;;;;3.15;1.08;;;18.10;70.90;;;;;;10410992;28;20040;-65
2022/05/13 12:26:12;;;;;;;2.88;1.05;;;18.20;70.80;;;;;;10417153;28;20037;-64
2022/05/13 14:49:45;;;;;;;2.03;0.93;;;19.70;68.80;;;;;;10572106;28;20506;-66
2022/05/13 14:54:46;;;;;;;2.30;0.85;;;19.70;68.90;;;;;;10536591;28;20036;-67
2022/05/13 15:00:03;;;;;;;2.45;1.15;;;19.70;68.90;;;;;;10537303;28;20035;-62
2022/05/13 15:05:29;;;;;;;3.05;1.10;;;19.80;68.60;;;;;;10537635;28;20039;-66
2022/05/13 15:10:30;;;;;;;1.63;0.82;;;19.90;68.50;;;;;;10533737;28;20097;-66
2022/05/13 15:15:31;;;;;;;2.85;0.98;;;19.90;68.60;;;;;;10536847;28;20118;-67
2022/05/13 15:20:31;;;;;;;1.60;0.93;;;20.00;68.50;;;;;;10536474;28;20032;-61
2022/05/13 15:25:32;;;;;;;2.80;0.88;;;20.00;68.50;;;;;;10536597;28;20354;-64
2022/05/13 15:30:33;;;;;;;5.10;1.17;;;20.00;68.40;;;;;;10536513;28;20518;-63
2022/05/13 15:35:34;;;;;;;2.00;0.90;;;20.10;68.40;;;;;;10536046;28;20038;-66
2022/05/13 15:40:34;;;;;;;3.03;0.85;;;20.20;68.20;;;;;;10536141;28;20035;-66
2022/05/13 15:45:40;;;;;;;2.40;0.93;;;20.20;68.20;;;;;;10536035;28;20085;-66
2022/05/13 15:56:01;;;;;;;2.78;1.30;;;20.30;68.30;;;;;;10535657;28;20118;-64
2022/05/13 16:01:04;;;;;;;1.55;0.80;;;20.30;68.40;;;;;;10542291;28;20036;-65
2022/05/13 16:06:05;;;;;;;2.30;0.95;;;20.20;68.50;;;;;;10544282;28;20350;-65
2022/05/13 16:11:09;;;;;;;2.10;0.80;;;20.10;68.70;;;;;;10543861;28;20043;-67
2022/05/13 16:16:15;;;;;;;3.38;1.23;;;20.10;68.90;;;;;;10543977;28;20040;-65
2022/05/13 16:21:19;;;;;;;1.80;1.10;;;20.00;69.60;;;;;;10543501;28;20051;-65
2022/05/13 16:26:23;;;;;;;3.45;1.10;;;19.90;69.00;;;;;;10543688;28;20078;-65
2022/05/13 16:31:26;;;;;;;2.92;1.20;;;19.80;69.20;;;;;;10542969;28;20040;-65
2022/05/13 16:36:27;;;;;;;4.22;1.23;;;19.80;69.30;;;;;;10543136;28;20039;-67
2022/05/13 16:41:28;;;;;;;2.20;1.27;;;19.80;69.30;;;;;;10542941;28;20502;-66
2022/05/13 16:46:29;;;;;;;3.80;1.45;;;19.70;69.40;;;;;;10524424;28;20036;-67
2022/05/13 16:51:30;;;;;;;2.70;1.40;;;19.70;69.50;;;;;;10542397;28;20071;-65
2022/05/13 16:56:30;;;;;;;2.67;1.67;;;19.70;69.50;;;;;;10542248;28;20073;-67
2022/05/13 17:01:32;;;;;;;4.32;1.50;;;19.60;69.60;;;;;;10542114;28;20434;-66
2022/05/13 17:06:33;;;;;;;2.22;1.13;;;19.60;69.60;;;;;;10541891;28;20499;-67
2022/05/13 17:16:53;;;;;;;4.70;1.83;;;19.50;69.80;;;;;;10541947;28;20097;-67
2022/05/13 17:21:54;;;;;;;5.28;1.67;;;19.50;69.80;;;;;;10541400;28;20121;-67
2022/05/13 17:27:18;;;;;;;2.38;1.23;;;19.40;69.80;;;;;;10541290;28;20145;-67
2022/05/13 17:32:21;;;;;;;3.33;1.40;;;19.40;69.90;;;;;;10540412;28;20036;-66
2022/05/13 17:37:30;;;;;;;2.20;1.10;;;19.40;69.90;;;;;;10540219;28;20042;-66
2022/05/13 17:42:32;;;;;;;3.08;1.30;;;19.30;70.00;;;;;;10540577;28;20038;-66
2022/05/13 17:47:33;;;;;;;2.35;1.42;;;19.30;70.00;;;;;;10540022;28;20048;-66
2022/05/13 17:52:34;;;;;;;3.60;1.33;;;19.30;70.10;;;;;;10539666;28;20420;-64
2022/05/13 17:57:35;;;;;;;4.38;1.70;;;19.20;70.20;;;;;;10539677;28;20032;-64
2022/05/13 18:02:35;;;;;;;3.80;1.80;;;19.20;70.20;;;;;;10539322;28;20028;-66
2022/05/13 18:07:36;;;;;;;3.90;2.47;;;19.10;70.20;;;;;;10539059;28;20048;-63
2022/05/13 18:12:37;;;;;;;2.60;1.40;;;19.10;70.30;;;;;;10538780;28;20115;-67
2022/05/13 18:17:39;;;;;;;4.25;1.40;;;19.10;70.40;;;;;;10539134;28;20119;-65
2022/05/13 18:22:40;;;;;;;2.92;1.63;;;19.00;70.50;;;;;;10537650;28;20643;-67
2022/05/13 18:27:40;;;;;;;5.15;1.40;;;19.00;70.50;;;;;;10538318;28;20166;-66
2022/05/13 18:32:41;;;;;;;3.17;1.33;;;18.90;70.60;;;;;;10538075;28;20028;-65
2022/05/13 18:37:44;;;;;;;3.05;1.38;;;18.90;70.70;;;;;;10538035;28;20063;-66
2022/05/13 18:48:06;;;;;;;3.85;1.70;;;18.80;70.80;;;;;;10537717;28;20404;-66
2022/05/13 18:53:06;;;;;;;4.28;1.67;;;18.80;70.80;;;;;;10535027;28;20534;-67
2022/05/13 18:58:07;;;;;;;3.58;1.30;;;18.70;70.80;;;;;;10537394;28;20036;-67
2022/05/13 19:03:08;;;;;;;3.00;1.40;;;18.70;70.90;;;;;;10537151;28;20028;-64
2022/05/13 19:08:08;;;;;;;5.13;1.80;;;18.70;71.00;;;;;;10536732;28;20040;-63
2022/05/13 19:13:10;;;;;;;4.65;1.50;;;18.60;71.00;;;;;;10535573;28;20032;-63
2022/05/13 19:18:17;;;;;;;4.30;1.48;;;18.60;71.10;;;;;;10536446;28;20054;-64
2022/05/13 19:23:19;;;;;;;4.00;1.77;;;18.60;71.20;;;;;;10536681;28;20115;-64
2022/05/13 19:28:20;;;;;;;4.60;1.40;;;18.50;71.20;;;;;;10536190;28;20481;-66
2022/05/13 19:33:20;;;;;;;4.13;2.70;;;18.50;71.30;;;;;;10535646;28;20123;-66
2022/05/13 19:38:22;;;;;;;2.97;1.40;;;18.40;71.30;;;;;;10536141;28;20114;-67
2022/05/13 19:43:23;;;;;;;3.88;2.10;;;18.40;71.40;;;;;;10535963;28;20474;-65
2022/05/13 19:48:24;;;;;;;4.00;1.60;;;18.40;71.50;;;;;;10536188;28;20203;-67
2022/05/13 19:53:25;;;;;;;5.13;1.45;;;18.30;71.50;;;;;;10535888;28;20520;-67
2022/05/13 19:58:25;;;;;;;4.78;1.83;;;18.30;71.60;;;;;;10535745;28;20130;-66
2022/05/13 20:03:27;;;;;;;3.70;1.85;;;18.20;71.60;;;;;;10535696;28;20408;-67
2022/05/13 20:13:49;;;;;;;3.90;1.50;;;18.20;71.80;;;;;;10535573;28;20480;-67
2022/05/13 20:18:52;;;;;;;5.85;1.60;;;18.10;71.90;;;;;;10535155;28;20072;-67
2022/05/13 20:23:53;;;;;;;2.85;1.52;;;18.10;71.90;;;;;;10535102;28;20090;-66
2022/05/13 20:28:56;;;;;;;3.78;1.60;;;18.10;72.00;;;;;;10535206;28;20393;-66
2022/05/13 20:33:57;;;;;;;4.53;1.60;;;18.00;72.10;;;;;;10535535;28;20510;-65
2022/05/13 20:38:58;;;;;;;3.25;1.75;;;18.00;72.10;;;;;;10534960;28;20028;-66
2022/05/13 20:43:59;;;;;;;5.47;1.80;;;18.00;72.20;;;;;;10535818;28;20476;-63
2022/05/13 20:49:00;;;;;;;3.70;1.83;;;17.90;72.20;;;;;;10542788;28;20046;-66
2022/05/13 20:54:04;;;;;;;3.60;2.05;;;17.90;72.30;;;;;;10542317;28;20108;-66
2022/05/13 20:59:06;;;;;;;4.18;1.77;;;17.90;72.30;;;;;;10542624;28;20066;-66
2022/05/13 21:04:12;;;;;;;9.35;2.00;;;17.80;72.30;;;;;;10542153;28;20036;-64
2022/05/13 21:09:12;;;;;;;4.70;2.03;;;17.80;72.40;;;;;;10541781;28;20044;-65
2022/05/13 21:14:13;;;;;;;4.13;1.60;;;17.80;72.40;;;;;;10542023;28;20039;-65
2022/05/13 21:19:14;;;;;;;6.97;2.05;;;17.80;72.50;;;;;;10541385;28;20475;-65
2022/05/13 21:24:15;;;;;;;4.28;1.95;;;17.70;72.50;;;;;;10541401;28;20039;-65
2022/05/13 21:29:16;;;;;;;6.28;2.05;;;17.70;72.50;;;;;;10541289;28;20079;-66
2022/05/13 21:39:36;;;;;;;4.22;1.90;;;17.60;72.50;;;;;;10541454;28;20044;-66
2022/05/13 21:44:38;;;;;;;3.95;1.95;;;17.60;72.60;;;;;;10540297;28;20020;-65
2022/05/13 21:49:40;;;;;;;5.25;1.73;;;17.50;72.60;;;;;;10540268;28;20072;-66
2022/05/13 21:54:47;;;;;;;3.20;2.10;;;17.50;72.60;;;;;;10537441;28;20056;-66
2022/05/13 21:59:48;;;;;;;4.82;1.73;;;17.40;72.60;;;;;;10539148;28;20067;-66
2022/05/13 22:04:49;;;;;;;4.70;1.80;;;17.40;72.60;;;;;;10539794;28;20491;-66
2022/05/13 22:09:50;;;;;;;4.47;2.10;;;17.40;72.70;;;;;;10538293;28;20040;-67
2022/05/13 22:14:51;;;;;;;3.83;1.95;;;17.30;72.60;;;;;;10539254;28;20044;-65
2022/05/13 22:19:51;;;;;;;3.45;1.77;;;17.30;72.70;;;;;;10538773;28;20043;-66
2022/05/13 22:24:52;;;;;;;4.50;1.58;;;17.30;72.70;;;;;;10538949;28;20036;-66
2022/05/13 22:29:53;;;;;;;4.32;2.05;;;17.20;72.70;;;;;;10538759;28;20177;-66
2022/05/13 22:34:54;;;;;;;4.93;1.83;;;17.20;72.70;;;;;;10538585;28;20036;-65
2022/05/13 22:39:54;;;;;;;5.05;1.88;;;17.20;72.70;;;;;;10538608;28;20028;-67
2022/05/13 22:44:55;;;;;;;2.90;1.40;;;17.10;72.70;;;;;;10538116;28;20047;-66
2022/05/13 22:49:56;;;;;;;4.25;2.13;;;17.10;72.70;;;;;;10538229;28;20060;-62
2022/05/13 22:54:56;;;;;;;4.45;1.60;;;17.10;72.70;;;;;;10537774;28;20055;-64
2022/05/13 22:59:58;;;;;;;3.83;1.50;;;17.10;72.70;;;;;;10537739;28;20043;-66
2022/05/13 23:04:59;;;;;;;5.40;1.63;;;17.00;72.70;;;;;;10537493;28;20055;-65
2022/05/13 23:15:19;;;;;;;2.05;1.40;;;17.00;72.70;;;;;;10537070;28;20032;-67
2022/05/13 23:20:20;;;;;;;4.40;1.40;;;16.90;72.60;;;;;;10536770;28;20084;-62
2022/05/13 23:25:21;;;;;;;3.53;1.65;;;16.90;72.60;;;;;;10536665;28;20031;-66
2022/05/13 23:30:22;;;;;;;3.63;1.95;;;16.90;72.60;;;;;;10536434;28;20147;-65
2022/05/13 23:35:24;;;;;;;2.00;1.58;;;16.80;72.60;;;;;;10536397;28;20520;-67
2022/05/13 23:40:24;;;;;;;4.50;1.70;;;16.80;72.60;;;;;;10536204;28;20071;-66
2022/05/13 23:45:25;;;;;;;3.20;1.67;;;16.80;72.60;;;;;;10535908;28;20025;-67
2022/05/13 23:50:27;;;;;;;2.63;1.40;;;16.80;72.60;;;;;;10535825;28;20131;-65
